createdAt,value
2023-03-16T00:00:18.833Z,62.07
2023-03-16T00:02:51.891Z,61.99
2023-03-16T00:05:18.795Z,62.86
2023-03-16T00:07:49.006Z,62.95
2023-03-16T00:11:14.519Z,63.01
2023-03-16T00:13:56.527Z,63.35
2023-03-16T00:16:39.750Z,63.37
2023-03-16T00:22:27.159Z,63.31
2023-03-16T00:23:40.057Z,63.71
2023-03-16T00:25:02.957Z,63.86
2023-03-16T00:27:39.105Z,63.44
2023-03-16T00:33:45.327Z,64.01
2023-03-16T00:36:39.541Z,63.80
2023-03-16T00:39:15.886Z,64.18
2023-03-16T00:42:12.209Z,63.94
2023-03-16T00:44:40.436Z,63.93
2023-03-16T00:47:55.664Z,64.56
2023-03-16T00:50:39.081Z,64.92
2023-03-16T00:53:07.400Z,64.63
2023-03-16T00:55:43.149Z,64.08
2023-03-16T00:58:29.600Z,64.62
2023-03-16T01:01:07.201Z,64.28
2023-03-16T01:06:51.689Z,63.75
2023-03-16T01:09:41.248Z,64.23
2023-03-16T01:16:35.058Z,64.87
2023-03-16T01:19:17.190Z,64.80
2023-03-16T01:22:02.389Z,65.37
2023-03-16T01:24:54.578Z,66.57
2023-03-16T01:27:25.039Z,66.52
2023-03-16T01:29:59.956Z,67.55
2023-03-16T01:35:13.162Z,68.17
2023-03-16T01:37:57.078Z,68.08
2023-03-16T01:40:36.475Z,68.08
2023-03-16T01:43:07.093Z,68.09
2023-03-16T01:46:18.391Z,68.61
2023-03-16T01:49:18.782Z,69.85
2023-03-16T01:52:41.334Z,70.02
2023-03-16T01:58:17.655Z,71.88
2023-03-16T02:01:20.230Z,72.04
2023-03-16T02:03:40.215Z,72.53
2023-03-16T02:06:56.141Z,72.99
2023-03-16T02:09:44.610Z,73.97
2023-03-16T02:12:26.567Z,74.40
2023-03-16T02:18:04.327Z,75.36
2023-03-16T02:20:57.878Z,76.34
2023-03-16T02:23:26.618Z,76.20
2023-03-16T02:26:22.875Z,77.23
2023-03-16T02:29:26.361Z,77.51
2023-03-16T02:31:55.308Z,78.06
2023-03-16T02:34:24.409Z,78.04
2023-03-16T02:36:53.684Z,77.26
2023-03-16T02:39:21.102Z,77.94
2023-03-16T02:41:48.618Z,77.79
2023-03-16T02:44:26.094Z,78.17
2023-03-16T02:47:00.561Z,78.69
2023-03-16T02:49:35.233Z,79.47
2023-03-16T02:52:03.546Z,78.81
2023-03-16T02:54:31.372Z,79.02
2023-03-16T02:56:58.838Z,78.56
2023-03-16T02:59:26.388Z,78.54
2023-03-16T03:01:55.472Z,79.36
2023-03-16T03:04:24.032Z,79.78
2023-03-16T03:06:52.480Z,79.86
2023-03-16T03:09:21.935Z,78.40
2023-03-16T03:11:49.642Z,79.33
2023-03-16T03:14:17.273Z,79.69
2023-03-16T03:16:48.164Z,80.04
2023-03-16T03:19:16.230Z,79.48
2023-03-16T03:21:44.100Z,78.96
2023-03-16T03:24:26.347Z,78.84
2023-03-16T03:26:58.989Z,79.58
2023-03-16T03:29:34.710Z,79.68
2023-03-16T03:32:31.379Z,79.56
2023-03-16T03:34:59.530Z,79.92
2023-03-16T03:38:07.717Z,79.57
2023-03-16T03:40:44.710Z,80.17
2023-03-16T03:43:13.581Z,80.58
2023-03-16T03:45:43.503Z,80.02
2023-03-16T03:48:11.548Z,79.69
2023-03-16T03:50:41.487Z,79.69
2023-03-16T03:53:13.686Z,79.42
2023-03-16T03:55:41.207Z,80.23
2023-03-16T03:58:08.997Z,80.51
2023-03-16T04:00:36.004Z,80.93
2023-03-16T04:03:04.473Z,80.10
2023-03-16T04:05:32.373Z,80.62
2023-03-16T04:10:42.063Z,81.23
2023-03-16T04:13:10.318Z,81.29
2023-03-16T04:15:39.146Z,80.94
2023-03-16T04:18:08.503Z,80.38
2023-03-16T04:20:37.343Z,81.77
2023-03-16T04:23:05.308Z,82.31
2023-03-16T04:25:35.865Z,83.59
2023-03-16T04:28:02.918Z,83.03
2023-03-16T04:30:32.696Z,84.66
2023-03-16T04:33:03.251Z,84.06
2023-03-16T04:35:30.973Z,84.63
2023-03-16T04:37:59.474Z,84.03
2023-03-16T04:40:27.501Z,84.77
2023-03-16T04:42:55.250Z,84.55
2023-03-16T04:45:23.513Z,84.54
2023-03-16T04:47:54.219Z,84.71
2023-03-16T04:50:21.915Z,84.80
2023-03-16T04:52:49.378Z,84.36
2023-03-16T04:55:16.755Z,84.25
2023-03-16T04:57:44.372Z,85.16
2023-03-16T05:00:15.821Z,86.28
2023-03-16T05:02:43.243Z,85.65
2023-03-16T05:05:10.483Z,86.23
2023-03-16T05:07:37.371Z,86.89
2023-03-16T05:10:04.716Z,86.40
2023-03-16T05:12:35.871Z,86.74
2023-03-16T05:15:02.883Z,87.30
2023-03-16T05:17:29.716Z,85.79
2023-03-16T05:19:56.880Z,86.22
2023-03-16T05:22:24.046Z,85.79
2023-03-16T05:24:50.887Z,86.15
2023-03-16T05:27:59.841Z,86.46
2023-03-16T05:30:48.516Z,86.16
2023-03-16T05:33:17.398Z,84.59
2023-03-16T05:35:55.591Z,85.78
2023-03-16T05:38:29.249Z,85.29
2023-03-16T05:41:06.000Z,86.47
2023-03-16T05:43:34.415Z,86.19
2023-03-16T05:46:01.324Z,86.09
2023-03-16T05:48:29.059Z,87.02
2023-03-16T05:50:56.666Z,86.57
2023-03-16T05:53:33.768Z,85.02
2023-03-16T05:56:01.912Z,86.54
2023-03-16T05:58:35.945Z,86.47
2023-03-16T06:01:03.679Z,84.91
2023-03-16T06:03:32.004Z,85.13
2023-03-16T06:05:59.731Z,85.28
2023-03-16T06:08:27.036Z,85.86
2023-03-16T06:10:54.499Z,85.40
2023-03-16T06:13:27.734Z,85.74
2023-03-16T06:15:57.872Z,84.77
2023-03-16T06:18:27.901Z,86.47
2023-03-16T06:20:55.931Z,85.57
2023-03-16T06:23:23.373Z,86.75
2023-03-16T06:25:51.605Z,86.38
2023-03-16T06:28:19.311Z,86.96
2023-03-16T06:30:47.317Z,87.37
2023-03-16T06:33:14.984Z,85.94
2023-03-16T06:35:42.652Z,86.87
2023-03-16T06:38:15.786Z,84.82
2023-03-16T06:40:43.571Z,83.88
2023-03-16T06:43:11.351Z,86.25
2023-03-16T06:45:39.285Z,85.56
2023-03-16T06:48:07.352Z,87.34
2023-03-16T06:50:35.530Z,87.03
2023-03-16T06:53:03.004Z,88.33
2023-03-16T06:55:31.177Z,87.34
2023-03-16T06:57:59.617Z,88.85
2023-03-16T07:00:28.358Z,88.71
2023-03-16T07:02:59.510Z,88.82
2023-03-16T07:05:27.876Z,89.47
2023-03-16T07:07:55.217Z,89.57
2023-03-16T07:10:23.532Z,88.80
2023-03-16T07:12:58.190Z,89.75
2023-03-16T07:15:27.708Z,89.08
2023-03-16T07:18:09.659Z,90.03
2023-03-16T07:20:36.538Z,89.64
2023-03-16T07:23:03.843Z,89.84
2023-03-16T07:25:34.961Z,89.50
2023-03-16T07:28:01.997Z,88.17
2023-03-16T07:30:30.138Z,88.78
2023-03-16T07:32:58.385Z,87.59
2023-03-16T07:35:27.316Z,88.99
2023-03-16T07:37:57.645Z,89.39
2023-03-16T07:40:50.607Z,89.28
2023-03-16T07:43:17.531Z,88.95
2023-03-16T07:46:18.833Z,88.12
2023-03-16T07:48:54.456Z,87.05
2023-03-16T07:51:37.841Z,87.71
2023-03-16T07:54:10.174Z,88.94
2023-03-16T07:57:26.991Z,87.94
2023-03-16T08:01:28.555Z,88.32
2023-03-16T08:03:19.144Z,88.27
2023-03-16T08:05:47.525Z,86.48
2023-03-16T08:08:24.103Z,86.99
2023-03-16T08:11:15.262Z,88.48
2023-03-16T08:13:45.204Z,87.50
2023-03-16T08:16:13.430Z,87.97
2023-03-16T08:18:52.210Z,87.81
2023-03-16T08:21:24.685Z,87.79
2023-03-16T08:23:52.605Z,88.52
2023-03-16T08:26:33.646Z,87.00
2023-03-16T08:29:08.665Z,86.93
2023-03-16T08:31:43.808Z,87.34
2023-03-16T08:34:17.731Z,86.51
2023-03-16T08:36:46.052Z,86.09
2023-03-16T08:39:14.245Z,87.19
2023-03-16T08:41:46.350Z,86.22
2023-03-16T08:44:13.241Z,87.97
2023-03-16T08:46:41.154Z,88.29
2023-03-16T08:49:09.163Z,86.88
2023-03-16T08:51:36.742Z,86.26
2023-03-16T08:54:04.020Z,88.46
2023-03-16T08:56:31.311Z,88.33
2023-03-16T08:58:59.216Z,90.44
2023-03-16T09:01:28.220Z,89.41
2023-03-16T09:03:56.444Z,90.13
2023-03-16T09:06:27.166Z,89.21
2023-03-16T09:08:54.196Z,89.13
2023-03-16T09:11:22.323Z,89.29
2023-03-16T09:13:53.186Z,91.02
2023-03-16T09:16:21.530Z,90.42
2023-03-16T09:18:49.829Z,91.07
2023-03-16T09:21:31.521Z,90.17
2023-03-16T09:23:59.304Z,88.91
2023-03-16T09:26:26.990Z,89.21
2023-03-16T09:28:55.485Z,91.26
2023-03-16T09:31:28.174Z,89.77
2023-03-16T09:33:55.821Z,88.69
2023-03-16T09:36:23.619Z,90.62
2023-03-16T09:38:50.705Z,91.09
2023-03-16T09:41:51.678Z,88.15
2023-03-16T09:44:29.494Z,88.34
2023-03-16T09:47:01.163Z,89.21
2023-03-16T09:49:36.847Z,89.50
2023-03-16T09:52:35.278Z,89.32
2023-03-16T09:55:28.357Z,88.66
2023-03-16T09:57:59.075Z,90.88
2023-03-16T10:00:38.082Z,90.26
2023-03-16T10:03:37.045Z,90.73
2023-03-16T10:06:10.578Z,90.36
2023-03-16T10:08:42.389Z,89.99
2023-03-16T10:11:21.656Z,88.25
2023-03-16T10:13:59.103Z,88.66
2023-03-16T10:16:48.002Z,88.21
2023-03-16T10:19:34.753Z,87.27
2023-03-16T10:22:14.306Z,87.28
2023-03-16T10:24:55.123Z,86.18
2023-03-16T10:27:35.036Z,86.80
2023-03-16T10:30:03.991Z,85.80
2023-03-16T10:32:34.715Z,84.70
2023-03-16T10:35:28.346Z,83.60
2023-03-16T10:37:57.070Z,83.58
2023-03-16T10:40:31.814Z,83.15
2023-03-16T10:43:23.560Z,83.27
2023-03-16T10:45:51.247Z,82.44
2023-03-16T10:48:21.894Z,82.91
2023-03-16T10:50:57.443Z,82.21
2023-03-16T10:53:32.137Z,83.01
2023-03-16T10:56:02.546Z,82.85
2023-03-16T10:58:33.949Z,83.55
2023-03-16T11:01:02.513Z,83.09
2023-03-16T11:03:37.097Z,82.38
2023-03-16T11:06:07.918Z,83.23
2023-03-16T11:08:42.265Z,83.26
2023-03-16T11:11:32.912Z,82.84
2023-03-16T11:14:12.007Z,81.86
2023-03-16T11:17:06.359Z,82.56
2023-03-16T11:19:40.276Z,83.45
2023-03-16T11:22:10.822Z,83.23
2023-03-16T11:25:11.026Z,82.52
2023-03-16T11:27:52.118Z,83.63
2023-03-16T11:30:36.124Z,81.75
2023-03-16T11:33:10.810Z,81.73
2023-03-16T11:35:58.132Z,81.62
2023-03-16T11:38:52.886Z,82.02
2023-03-16T11:41:53.764Z,81.68
2023-03-16T11:44:40.222Z,82.73
2023-03-16T11:47:56.162Z,82.89
2023-03-16T11:51:16.868Z,85.10
2023-03-16T11:53:57.802Z,85.18
2023-03-16T11:56:42.878Z,85.18
2023-03-16T11:59:30.856Z,85.52
2023-03-16T12:02:15.914Z,83.70
2023-03-16T12:05:30.678Z,84.76
2023-03-16T12:08:28.137Z,85.92
2023-03-16T12:11:10.347Z,86.44
2023-03-16T12:13:42.147Z,85.41
2023-03-16T12:16:48.269Z,86.95
2023-03-16T12:19:39.734Z,85.70
2023-03-16T12:22:46.601Z,86.51
2023-03-16T12:25:34.121Z,88.31
2023-03-16T12:28:08.183Z,88.20
2023-03-16T12:31:25.846Z,87.18
2023-03-16T12:34:28.304Z,88.83
2023-03-16T12:37:14.512Z,88.51
2023-03-16T12:40:00.412Z,88.32
2023-03-16T12:42:43.929Z,87.79
2023-03-16T12:45:28.791Z,86.75
2023-03-16T12:48:23.500Z,85.90
2023-03-16T12:50:55.927Z,87.58
2023-03-16T12:53:53.677Z,87.15
2023-03-16T12:56:45.798Z,86.28
2023-03-16T12:59:26.964Z,87.12
2023-03-16T13:02:02.871Z,85.86
2023-03-16T13:04:34.794Z,86.07
2023-03-16T13:07:37.380Z,85.31
2023-03-16T13:10:20.055Z,86.46
2023-03-16T13:13:09.383Z,87.86
2023-03-16T13:15:41.620Z,87.39
2023-03-16T13:18:20.183Z,87.45
2023-03-16T13:21:00.104Z,86.48
2023-03-16T13:23:54.901Z,86.42
2023-03-16T13:26:48.057Z,86.27
2023-03-16T13:29:27.203Z,86.81
2023-03-16T13:32:01.059Z,86.05
2023-03-16T13:34:47.008Z,85.92
2023-03-16T13:37:18.936Z,85.93
2023-03-16T13:39:57.723Z,84.43
2023-03-16T13:42:28.128Z,86.05
2023-03-16T13:44:58.104Z,84.74
2023-03-16T13:47:29.248Z,85.63
2023-03-16T13:49:59.088Z,84.44
2023-03-16T13:52:30.612Z,84.63
2023-03-16T13:55:00.043Z,84.76
2023-03-16T13:57:37.459Z,84.70
2023-03-16T14:00:18.607Z,84.69
2023-03-16T14:02:47.851Z,84.96
2023-03-16T14:05:21.796Z,84.50
2023-03-16T14:07:52.008Z,84.57
2023-03-16T14:10:21.325Z,83.38
2023-03-16T14:12:52.939Z,83.00
2023-03-16T14:15:21.211Z,83.72
2023-03-16T14:17:49.391Z,85.07
2023-03-16T14:20:26.520Z,86.65
2023-03-16T14:22:59.607Z,86.37
2023-03-16T14:25:29.387Z,85.54
2023-03-16T14:28:03.992Z,87.21
2023-03-16T14:30:31.990Z,86.00
2023-03-16T14:33:07.198Z,86.52
2023-03-16T14:35:43.125Z,88.34
2023-03-16T14:38:29.173Z,87.22
2023-03-16T14:41:05.777Z,88.74
2023-03-16T14:43:39.856Z,88.51
2023-03-16T14:46:08.904Z,89.73
2023-03-16T14:48:37.082Z,89.35
2023-03-16T14:51:05.165Z,90.37
2023-03-16T14:53:32.711Z,89.51
2023-03-16T14:56:00.552Z,87.72
2023-03-16T14:58:28.040Z,88.38
2023-03-16T15:00:55.813Z,89.33
2023-03-16T15:03:29.564Z,89.53
2023-03-16T15:05:57.599Z,89.13
2023-03-16T15:08:29.537Z,89.54
2023-03-16T15:11:10.112Z,90.20
2023-03-16T15:13:40.650Z,90.11
2023-03-16T15:16:12.315Z,90.86
2023-03-16T15:18:40.971Z,91.00
2023-03-16T15:21:24.680Z,92.57
2023-03-16T15:23:53.224Z,91.49
2023-03-16T15:26:27.595Z,92.68
2023-03-16T15:28:58.843Z,93.25
2023-03-16T15:31:26.971Z,95.08
2023-03-16T15:33:54.147Z,94.63
2023-03-16T15:36:24.526Z,94.73
2023-03-16T15:38:54.434Z,95.36
2023-03-16T15:41:23.649Z,94.79
2023-03-16T15:43:52.866Z,94.86
2023-03-16T15:46:21.967Z,94.04
2023-03-16T15:49:10.802Z,94.69
2023-03-16T15:53:10.182Z,94.93
2023-03-16T15:55:47.021Z,95.65
2023-03-16T15:58:21.880Z,95.30
2023-03-16T16:01:04.941Z,96.43
2023-03-16T16:03:32.393Z,96.79
2023-03-16T16:05:59.716Z,96.59
2023-03-16T16:08:27.048Z,97.07
2023-03-16T16:10:58.706Z,96.66
2023-03-16T16:13:37.518Z,98.15
2023-03-16T16:16:15.143Z,98.30
2023-03-16T16:18:43.658Z,98.75
2023-03-16T16:21:25.530Z,98.60
2023-03-16T16:24:04.010Z,98.81
2023-03-16T16:26:49.842Z,98.39
2023-03-16T16:29:24.074Z,98.66
2023-03-16T16:31:52.470Z,98.54
2023-03-16T16:34:25.427Z,99.88
2023-03-16T16:36:57.697Z,99.91
2023-03-16T16:39:26.015Z,100.00
2023-03-16T16:41:58.575Z,99.86
2023-03-16T16:44:35.758Z,100.00
2023-03-16T16:47:06.872Z,100.00
2023-03-16T16:49:35.347Z,100.00
2023-03-16T16:52:04.693Z,100.00
2023-03-16T16:54:33.225Z,99.82
2023-03-16T16:57:04.415Z,100.00
2023-03-16T16:59:42.500Z,100.00
2023-03-16T17:02:32.563Z,100.00
2023-03-16T17:05:04.956Z,100.00
2023-03-16T17:07:33.203Z,100.00
2023-03-16T17:10:00.185Z,100.00
2023-03-16T17:12:30.278Z,100.00
2023-03-16T17:15:00.860Z,100.00
2023-03-16T17:17:31.112Z,100.00
2023-03-16T17:20:02.438Z,100.00
2023-03-16T17:22:32.105Z,100.00
2023-03-16T17:24:59.849Z,100.00
2023-03-16T17:27:32.660Z,100.00
2023-03-16T17:30:01.307Z,100.00
2023-03-16T17:32:29.054Z,100.00
2023-03-16T17:35:00.898Z,100.00
2023-03-16T17:37:32.045Z,100.00
2023-03-16T17:40:02.450Z,100.00
2023-03-16T17:42:32.844Z,100.00
2023-03-16T17:45:29.495Z,100.00
2023-03-16T17:48:00.298Z,100.00
2023-03-16T17:50:30.225Z,100.00
2023-03-16T17:53:01.822Z,100.00
2023-03-16T17:55:29.262Z,100.00
2023-03-16T17:57:56.937Z,100.00
2023-03-16T18:00:32.642Z,100.00
2023-03-16T18:03:15.578Z,100.00
2023-03-16T18:05:44.810Z,100.00
2023-03-16T18:08:29.902Z,100.00
2023-03-16T18:11:01.460Z,100.00
2023-03-16T18:13:35.540Z,100.00
2023-03-16T18:16:06.516Z,100.00
2023-03-16T18:18:43.197Z,100.00
2023-03-16T18:21:23.872Z,100.00
2023-03-16T18:23:51.784Z,100.00
2023-03-16T18:26:19.987Z,100.00
2023-03-16T18:28:47.489Z,100.00
2023-03-16T18:31:22.372Z,100.00
2023-03-16T18:34:09.404Z,100.00
2023-03-16T18:36:38.450Z,100.00
2023-03-16T18:39:27.832Z,100.00
2023-03-16T18:41:55.180Z,100.00
2023-03-16T18:44:30.717Z,100.00
2023-03-16T18:47:02.993Z,100.00
2023-03-16T18:49:37.638Z,100.00
2023-03-16T18:52:16.172Z,100.00
2023-03-16T18:54:46.361Z,100.00
2023-03-16T18:57:22.719Z,100.00
2023-03-16T18:59:52.117Z,100.00
2023-03-16T19:02:41.756Z,100.00
2023-03-16T19:05:38.944Z,100.00
2023-03-16T19:08:07.103Z,100.00
2023-03-16T19:10:39.207Z,100.00
2023-03-16T19:13:17.556Z,100.00
2023-03-16T19:15:45.073Z,100.00
2023-03-16T19:18:13.242Z,100.00
2023-03-16T19:20:44.549Z,100.00
2023-03-16T19:23:24.822Z,100.00
2023-03-16T19:25:52.985Z,100.00
2023-03-16T19:28:34.315Z,100.00
2023-03-16T19:31:21.384Z,100.00
2023-03-16T19:33:49.909Z,100.00
2023-03-16T19:36:30.790Z,100.00
2023-03-16T19:38:59.769Z,100.00
2023-03-16T19:41:34.166Z,100.00
2023-03-16T19:44:13.442Z,100.00
2023-03-16T19:46:41.915Z,100.00
2023-03-16T19:49:21.220Z,100.00
2023-03-16T19:51:52.039Z,100.00
2023-03-16T19:54:28.516Z,100.00
2023-03-16T19:56:58.853Z,100.00
2023-03-16T19:59:31.834Z,100.00
2023-03-16T20:02:00.156Z,100.00
2023-03-16T20:04:31.739Z,100.00
2023-03-16T20:06:59.600Z,100.00
2023-03-16T20:09:27.933Z,100.00
2023-03-16T20:11:55.292Z,100.00
2023-03-16T20:14:32.790Z,100.00
2023-03-16T20:17:04.708Z,100.00
2023-03-16T20:19:37.497Z,100.00
2023-03-16T20:22:18.012Z,100.00
2023-03-16T20:24:47.249Z,100.00
2023-03-16T20:27:16.402Z,100.00
2023-03-16T20:29:50.040Z,100.00
2023-03-16T20:32:34.717Z,100.00
2023-03-16T20:35:02.682Z,100.00
2023-03-16T20:37:31.842Z,100.00
2023-03-16T20:39:59.548Z,100.00
2023-03-16T20:42:31.995Z,100.00
2023-03-16T20:45:00.209Z,100.00
2023-03-16T20:47:28.247Z,100.00
2023-03-16T20:49:57.648Z,100.00
2023-03-16T20:52:30.611Z,100.00
2023-03-16T20:55:02.560Z,100.00
2023-03-16T20:57:31.535Z,100.00
2023-03-16T21:00:00.205Z,100.00
2023-03-16T21:02:36.892Z,100.00
2023-03-16T21:05:07.499Z,100.00
2023-03-16T21:07:35.491Z,100.00
2023-03-16T21:10:03.325Z,100.00
2023-03-16T21:12:37.636Z,100.00
2023-03-16T21:15:37.409Z,100.00
2023-03-16T21:18:08.727Z,100.00
2023-03-16T21:20:36.781Z,100.00
2023-03-16T21:23:04.143Z,100.00
2023-03-16T21:25:34.836Z,100.00
2023-03-16T21:28:05.558Z,100.00
2023-03-16T21:30:43.534Z,100.00
2023-03-16T21:33:19.256Z,100.00
2023-03-16T21:35:46.544Z,100.00
2023-03-16T21:38:19.359Z,100.00
2023-03-16T21:40:47.280Z,100.00
2023-03-16T21:43:15.913Z,100.00
2023-03-16T21:45:43.051Z,100.00
2023-03-16T21:48:30.260Z,100.00
2023-03-16T21:50:57.232Z,100.00
2023-03-16T21:53:27.412Z,100.00
2023-03-16T21:55:55.425Z,100.00
2023-03-16T21:58:23.861Z,100.00
2023-03-16T22:00:53.594Z,100.00
2023-03-16T22:03:26.047Z,100.00
2023-03-16T22:05:54.835Z,100.00
2023-03-16T22:08:34.952Z,100.00
2023-03-16T22:11:09.560Z,100.00
2023-03-16T22:13:47.408Z,100.00
2023-03-16T22:16:21.129Z,100.00
2023-03-16T22:18:51.111Z,100.00
2023-03-16T22:21:21.757Z,100.00
2023-03-16T22:23:58.585Z,100.00
2023-03-16T22:26:27.295Z,100.00
2023-03-16T22:28:56.974Z,100.00
2023-03-16T22:31:39.852Z,100.00
2023-03-16T22:34:27.497Z,100.00
2023-03-16T22:36:56.451Z,100.00
2023-03-16T22:39:24.173Z,100.00
2023-03-16T22:42:01.513Z,100.00
2023-03-16T22:44:31.810Z,100.00
2023-03-16T22:46:59.840Z,100.00
2023-03-16T22:49:31.505Z,100.00
2023-03-16T22:52:07.976Z,100.00
2023-03-16T22:54:35.856Z,100.00
2023-03-16T22:57:11.241Z,100.00
2023-03-16T22:59:38.783Z,100.00
2023-03-16T23:02:07.647Z,100.00
2023-03-16T23:04:36.035Z,100.00
2023-03-16T23:07:04.226Z,100.00
2023-03-16T23:09:33.068Z,100.00
2023-03-16T23:12:04.332Z,100.00
2023-03-16T23:14:36.127Z,100.00
2023-03-16T23:17:04.632Z,100.00
2023-03-16T23:19:38.386Z,100.00
2023-03-16T23:22:08.508Z,100.00
2023-03-16T23:24:36.971Z,100.00
2023-03-16T23:27:06.262Z,100.00
2023-03-16T23:29:37.312Z,100.00
2023-03-16T23:32:05.859Z,100.00
2023-03-16T23:34:33.667Z,100.00
2023-03-16T23:37:01.693Z,100.00
2023-03-16T23:39:37.656Z,100.00
2023-03-16T23:42:05.982Z,100.00
2023-03-16T23:44:33.545Z,100.00
2023-03-16T23:47:03.842Z,100.00
2023-03-16T23:49:37.495Z,100.00
2023-03-16T23:52:06.414Z,100.00
2023-03-16T23:54:34.614Z,100.00
2023-03-16T23:57:06.548Z,100.00
2023-03-16T23:59:34.011Z,100.00
